Time;durP1;ratioP1;P1;durP2;ratioP2;P2;SDS_P1;SDS_P2;PMS_P1;PMS_P2;Temp;Humidity;BMP_temperature;BMP_pressure;BME280_temperature;BME280_humidity;BME280_pressure;Samples;Min_cycle;Max_cycle;Signal;HPM_P1;HPM_P2
2022/05/22 00:01:15;;;;;;;2.20;1.77;;;20.00;57.60;;;20.41;41.28;98859.19;4998871;28;123558;-94
2022/05/22 00:04:38;;;;;;;2.10;1.80;;;19.90;57.60;;;20.36;41.36;98867.09;5023640;28;124190;-95
2022/05/22 00:07:06;;;;;;;2.40;1.80;;;19.90;57.70;;;20.32;41.23;98866.25;4990284;28;114138;-94
2022/05/22 00:09:35;;;;;;;2.77;2.13;;;19.80;57.80;;;20.29;41.34;98874.22;5027621;28;112521;-94
2022/05/22 00:12:41;;;;;;;2.63;1.90;;;19.80;58.60;;;20.23;41.63;98869.28;5011983;28;123566;-94
2022/05/22 00:18:49;;;;;;;2.17;1.87;;;19.70;58.20;;;20.15;41.79;98865.59;4997593;28;116209;-93
2022/05/22 00:24:58;;;;;;;2.20;1.70;;;19.60;58.40;;;20.06;41.93;98863.00;4998671;28;125080;-81
2022/05/22 00:27:25;;;;;;;3.00;2.17;;;19.60;58.60;;;20.04;41.96;98857.00;5017018;28;123084;-92
2022/05/22 00:29:53;;;;;;;3.17;2.20;;;19.50;58.70;;;20.02;42.35;98853.75;5015111;28;115150;-84
2022/05/22 00:36:02;;;;;;;3.97;2.47;;;19.50;59.00;;;19.90;42.47;98858.72;5020066;28;125115;-93
2022/05/22 00:38:30;;;;;;;1.70;1.60;;;19.40;59.30;;;19.83;42.83;98851.00;5010012;28;122516;-93
2022/05/22 00:44:38;;;;;;;2.13;1.40;;;19.30;59.50;;;19.77;42.74;98844.06;5006342;28;114472;-94
2022/05/22 00:47:24;;;;;;;2.73;2.13;;;19.20;59.70;;;19.76;43.09;98850.88;5003506;28;124850;-94
2022/05/22 00:49:53;;;;;;;3.10;1.80;;;19.30;59.80;;;19.74;42.96;98834.41;5010952;28;123099;-94
2022/05/22 00:56:23;;;;;;;3.03;2.10;;;19.20;59.90;;;19.67;42.82;98841.91;4999015;28;114940;-95
2022/05/22 00:59:16;;;;;;;3.63;1.90;;;19.20;60.10;;;19.62;43.25;98835.38;5012810;28;123988;-95
2022/05/22 01:02:03;;;;;;;2.23;1.87;;;19.10;60.10;;;19.61;43.00;98842.19;5013130;28;124337;-94
2022/05/22 01:04:35;;;;;;;3.03;1.70;;;19.10;60.30;;;19.61;43.13;98846.94;5012272;28;113196;-94
2022/05/22 01:07:40;;;;;;;1.73;1.63;;;19.10;60.30;;;19.56;43.09;98848.09;4977328;28;114674;-94
2022/05/22 01:14:16;;;;;;;2.17;1.60;;;19.00;60.50;;;19.50;43.13;98831.94;4977852;28;125849;-94
2022/05/22 01:16:44;;;;;;;2.00;1.70;;;19.00;60.60;;;19.48;43.38;98826.72;4995413;28;114787;-94
2022/05/22 01:19:15;;;;;;;2.23;1.70;;;19.00;60.80;;;19.49;43.46;98821.91;5014924;28;115476;-94
2022/05/22 01:21:57;;;;;;;2.67;1.90;;;19.00;60.90;;;19.48;43.50;98811.88;5011626;28;124834;-94
2022/05/22 01:28:07;;;;;;;1.80;1.60;;;18.90;61.10;;;19.40;43.70;98817.34;5000237;28;115319;-94
2022/05/22 01:30:35;;;;;;;2.07;1.80;;;18.80;61.10;;;19.37;43.59;98818.09;5014463;28;113116;-94
2022/05/22 01:36:44;;;;;;;2.50;1.77;;;18.80;61.30;;;19.26;44.02;98822.66;5001777;28;124673;-95
2022/05/22 01:39:10;;;;;;;2.17;1.53;;;18.80;61.50;;;19.24;44.08;98824.25;5016318;28;115088;-96
2022/05/22 01:45:24;;;;;;;2.47;1.93;;;18.70;61.70;;;19.18;44.20;98827.34;5021138;28;125145;-90
2022/05/22 01:47:52;;;;;;;2.40;1.90;;;18.70;61.90;;;19.17;44.25;98819.28;5014576;28;123209;-93
2022/05/22 01:54:20;;;;;;;2.77;1.77;;;18.60;62.10;;;19.10;44.14;98813.53;5001004;28;115133;-95
2022/05/22 01:56:46;;;;;;;1.80;1.70;;;18.60;62.30;;;19.08;44.26;98818.72;4998480;28;122053;-95
2022/05/22 02:02:56;;;;;;;1.97;1.60;;;18.50;62.40;;;18.99;44.56;98835.72;5001604;28;115176;-82
2022/05/22 02:06:03;;;;;;;2.50;2.00;;;18.40;62.50;;;18.94;44.46;98825.63;5005918;28;113874;-94
2022/05/22 02:12:51;;;;;;;2.30;1.90;;;18.40;62.50;;;18.82;44.49;98810.97;5001294;28;124808;-83
2022/05/22 02:19:00;;;;;;;1.87;1.60;;;18.30;62.70;;;18.80;44.74;98816.91;4981916;28;116044;-89
2022/05/22 05:24:01;;;;;;;1.77;1.63;;;17.60;69.40;;;18.20;47.64;98698.88;5912933;23;98999;-79
2022/05/22 05:30:11;;;;;;;4.53;2.90;;;17.30;69.30;;;18.20;47.75;98698.88;4924336;28;125109;-74
2022/05/22 05:36:20;;;;;;;2.43;2.10;;;15.90;68.70;;;18.06;48.32;98700.19;4924625;28;115242;-74
2022/05/22 05:42:41;;;;;;;2.23;1.70;;;16.90;69.80;;;18.16;48.13;98703.56;4923796;28;125123;-74
2022/05/22 05:48:51;;;;;;;2.07;1.57;;;17.00;70.10;;;18.47;48.36;98697.88;4924384;28;115268;-74
2022/05/22 05:54:59;;;;;;;1.60;1.50;;;17.40;71.70;;;18.80;48.06;98688.16;4923242;28;125075;-76
2022/05/22 06:01:13;;;;;;;2.50;1.80;;;18.10;71.80;;;19.01;47.51;98692.56;4923930;28;115434;-81
2022/05/22 06:07:22;;;;;;;1.57;1.47;;;18.20;70.80;;;19.15;46.97;98676.81;4923783;28;125059;-79
2022/05/22 06:13:31;;;;;;;1.93;1.70;;;18.50;70.40;;;19.38;46.77;98679.63;4923473;28;116304;-76
2022/05/22 06:39:52;;;;;;;1.40;1.30;;;19.60;68.90;;;20.38;44.82;98668.31;5186287;23;96353;-81
2022/05/22 06:46:02;;;;;;;2.10;1.37;;;19.70;67.90;;;20.56;44.25;98666.56;4922957;28;124732;-76
2022/05/22 06:52:11;;;;;;;2.67;1.70;;;19.80;67.30;;;20.81;44.27;98668.84;4923154;28;114969;-83
2022/05/22 06:58:19;;;;;;;6.40;4.07;;;20.90;68.40;;;20.92;44.03;98664.94;4922623;28;124938;-93
2022/05/22 07:04:31;;;;;;;4.30;2.60;;;20.30;67.20;;;21.01;43.97;98664.66;4923498;28;116181;-77
2022/05/22 07:19:44;;;;;;;3.90;2.10;;;20.70;66.40;;;21.56;42.54;98656.34;5942902;23;99335;-86
2022/05/22 07:25:56;;;;;;;1.77;1.40;;;20.90;65.60;;;21.75;42.18;98648.84;4922133;28;115332;-90
2022/05/22 07:32:09;;;;;;;2.50;1.80;;;21.10;65.40;;;22.02;42.03;98646.59;4922237;28;125155;-80
2022/05/22 07:38:22;;;;;;;3.90;1.80;;;21.40;65.20;;;22.11;41.60;98646.25;4909020;28;115449;-93
2022/05/22 07:41:00;;;;;;;1.60;1.47;;;21.40;65.10;;;22.13;41.49;98639.03;4899121;28;114703;-91
2022/05/22 07:47:10;;;;;;;2.30;1.80;;;21.50;64.50;;;22.20;41.00;98625.03;4902978;28;124792;-76
2022/05/22 07:53:40;;;;;;;1.70;1.60;;;21.60;63.50;;;22.25;41.30;98626.66;4922271;28;115021;-89
2022/05/22 07:56:45;;;;;;;2.03;1.73;;;21.50;63.40;;;22.34;41.08;98623.47;4903293;28;124928;-93
2022/05/22 08:07:16;;;;;;;1.97;1.77;;;21.80;62.50;;;22.54;40.43;98604.22;4922479;28;114881;-76
2022/05/22 08:09:51;;;;;;;2.67;1.70;;;21.80;62.70;;;22.65;40.55;98605.09;4899947;28;125052;-96
2022/05/22 08:12:26;;;;;;;2.43;1.77;;;22.00;63.10;;;22.73;40.09;98601.09;4918649;28;123574;-94
2022/05/22 08:18:40;;;;;;;2.50;1.60;;;22.10;61.60;;;22.84;39.62;98601.91;4901791;28;115962;-79
2022/05/22 08:21:11;;;;;;;3.37;1.73;;;22.10;61.60;;;22.88;39.42;98591.44;4900728;28;124665;-84
2022/05/22 08:23:37;;;;;;;1.93;1.57;;;22.20;61.90;;;22.98;39.80;98594.72;4875074;28;123096;-90
2022/05/22 08:26:04;;;;;;;2.40;1.60;;;22.30;61.90;;;23.03;39.49;98585.88;4871639;28;113606;-90
2022/05/22 08:28:30;;;;;;;3.70;1.40;;;22.40;61.60;;;23.09;39.52;98581.44;4871284;28;114535;-89
2022/05/22 08:30:57;;;;;;;1.80;1.60;;;22.40;61.20;;;23.15;39.35;98583.44;4860315;28;123904;-89
2022/05/22 08:33:44;;;;;;;2.20;1.67;;;22.50;61.20;;;23.22;39.27;98574.19;4872367;28;122959;-92
2022/05/22 08:36:10;;;;;;;2.10;1.53;;;22.50;60.90;;;23.23;39.15;98578.59;4779160;29;113392;-90
2022/05/22 08:38:37;;;;;;;2.60;1.80;;;22.60;60.90;;;23.28;39.00;98569.75;4770386;29;114161;-89
2022/05/22 08:41:18;;;;;;;3.10;1.80;;;22.60;60.40;;;23.33;39.19;98568.53;4745031;29;122790;-89
2022/05/22 08:44:09;;;;;;;1.90;1.50;;;22.70;60.40;;;23.31;38.30;98568.94;4760333;29;124349;-91
2022/05/22 08:46:54;;;;;;;4.00;2.00;;;22.70;59.00;;;23.29;38.39;98560.09;4775357;29;114155;-92
2022/05/22 08:49:41;;;;;;;4.67;2.13;;;22.70;59.00;;;23.28;38.44;98563.31;4765946;29;112420;-92
2022/05/22 08:52:17;;;;;;;1.90;1.63;;;22.70;58.80;;;23.29;38.37;98557.28;4767694;29;123938;-93
2022/05/22 08:54:55;;;;;;;1.20;1.10;;;22.70;58.90;;;23.35;38.59;98564.13;4767773;29;121826;-91
2022/05/22 09:00:44;;;;;;;1.87;1.40;;;22.80;58.80;;;23.48;37.97;98544.75;4755764;29;114168;-92
2022/05/22 09:03:20;;;;;;;2.23;1.50;;;22.90;59.00;;;23.53;37.91;98549.97;4773922;29;122960;-92
2022/05/22 09:05:53;;;;;;;3.33;1.43;;;22.90;58.10;;;23.56;37.74;98539.88;4762127;29;123236;-91
2022/05/22 09:08:29;;;;;;;2.10;1.43;;;23.00;58.30;;;23.59;37.38;98533.47;4778612;29;115337;-92
2022/05/22 09:11:28;;;;;;;2.20;1.83;;;23.00;57.60;;;23.59;37.30;98539.09;4766020;29;114150;-91
2022/05/22 09:14:20;;;;;;;1.77;1.40;;;23.00;57.60;;;23.60;37.20;98540.69;4834418;28;123254;-91
2022/05/22 09:17:17;;;;;;;2.33;1.60;;;23.10;57.30;;;23.59;37.39;98534.25;4872830;28;123515;-93
2022/05/22 09:19:53;;;;;;;1.90;1.43;;;23.10;57.20;;;23.65;36.91;98536.66;4859539;28;113940;-90
2022/05/22 09:22:26;;;;;;;2.10;1.23;;;23.10;57.20;;;23.67;36.78;98528.59;4856913;28;114112;-90
2022/05/22 09:25:15;;;;;;;3.63;1.70;;;23.10;56.60;;;23.68;36.61;98525.38;4872405;28;124164;-93
2022/05/22 09:28:08;;;;;;;1.90;1.50;;;23.10;56.20;;;23.74;36.87;98523.75;4850566;28;122302;-91
2022/05/22 09:31:03;;;;;;;2.30;1.50;;;23.20;56.40;;;23.81;36.60;98525.78;4874725;28;113611;-90
2022/05/22 09:34:23;;;;;;;1.50;1.40;;;23.20;56.50;;;23.86;36.74;98516.88;4862162;28;113412;-90
2022/05/22 09:37:29;;;;;;;2.50;1.40;;;23.30;56.50;;;23.93;36.50;98525.31;4831790;28;123024;-92
2022/05/22 09:40:16;;;;;;;2.73;1.37;;;23.30;56.20;;;23.97;36.67;98514.81;4844035;29;123761;-92
2022/05/22 09:43:34;;;;;;;2.10;1.37;;;23.40;56.30;;;24.01;36.49;98520.44;4867482;28;114757;-91
2022/05/22 09:46:36;;;;;;;2.90;1.70;;;23.50;55.90;;;24.07;36.32;98513.16;4863505;28;113703;-92
2022/05/22 09:49:22;;;;;;;2.43;1.57;;;23.50;56.10;;;24.09;36.09;98510.72;4846914;28;125068;-89
2022/05/22 09:52:08;;;;;;;1.67;1.27;;;23.50;55.70;;;24.07;36.09;98513.16;4847340;29;123865;-89
2022/05/22 09:55:11;;;;;;;1.40;1.30;;;23.60;55.70;;;24.12;36.28;98506.28;4855375;28;113594;-89
2022/05/22 09:57:43;;;;;;;1.30;1.20;;;23.60;55.50;;;24.20;36.36;98505.81;4867419;28;113258;-89
2022/05/22 10:00:17;;;;;;;1.83;1.20;;;23.70;55.90;;;24.28;35.96;98506.59;4863620;28;124052;-89
2022/05/22 10:03:14;;;;;;;1.80;1.13;;;23.70;55.40;;;24.32;35.99;98496.09;4874365;28;123991;-89
2022/05/22 10:06:22;;;;;;;2.83;1.33;;;23.80;55.60;;;24.41;36.12;98492.81;4848945;28;116080;-88
2022/05/22 10:09:28;;;;;;;1.60;1.43;;;23.80;55.50;;;24.45;35.84;98488.78;4851811;29;113756;-88
2022/05/22 10:12:06;;;;;;;1.97;1.13;;;23.90;55.30;;;24.49;35.49;98497.22;4856060;28;123409;-91
2022/05/22 10:14:48;;;;;;;1.97;1.40;;;23.90;55.00;;;24.49;35.40;98487.94;4871217;28;123226;-90
2022/05/22 10:17:26;;;;;;;2.10;1.37;;;23.90;54.70;;;24.50;35.45;98479.03;4842031;28;113386;-89
2022/05/22 10:20:05;;;;;;;1.47;1.20;;;24.00;54.50;;;24.53;35.30;98480.25;4857951;28;113948;-89
2022/05/22 10:23:20;;;;;;;1.67;1.13;;;24.00;54.40;;;24.55;35.32;98472.97;4875226;28;123681;-87
2022/05/22 10:26:32;;;;;;;1.60;1.50;;;24.00;54.10;;;24.58;35.35;98477.81;4867626;28;124111;-89
2022/05/22 10:29:37;;;;;;;1.40;1.07;;;24.00;54.10;;;24.62;34.99;98478.56;4851474;28;114621;-89
2022/05/22 10:33:06;;;;;;;3.07;1.40;;;24.10;53.90;;;24.66;34.69;98470.88;4875580;28;113377;-89
2022/05/22 10:35:44;;;;;;;1.60;1.23;;;24.10;53.60;;;24.73;34.72;98469.22;4859656;28;126560;-88
2022/05/22 10:38:52;;;;;;;1.60;1.50;;;24.20;53.60;;;24.72;34.32;98450.63;4865335;28;123788;-88
2022/05/22 10:44:46;;;;;;;2.90;1.50;;;24.20;52.60;;;24.78;34.62;98444.13;4863060;28;114501;-88
2022/05/22 10:47:13;;;;;;;1.80;1.30;;;24.20;52.90;;;24.83;34.31;98434.41;4856399;28;123201;-87
2022/05/22 10:49:44;;;;;;;7.23;1.40;;;24.30;52.60;;;24.86;33.81;98440.03;4869685;28;123090;-89
2022/05/22 10:52:14;;;;;;;2.50;1.50;;;24.30;52.40;;;24.90;34.11;98425.84;4841650;28;112574;-89
2022/05/22 10:54:52;;;;;;;1.63;1.53;;;24.40;52.40;;;24.96;33.69;98423.38;4872752;28;114510;-88
2022/05/22 10:57:28;;;;;;;2.13;1.60;;;24.40;52.10;;;25.03;33.68;98423.31;4871620;28;123763;-88
2022/05/22 10:59:55;;;;;;;1.47;1.30;;;24.50;52.30;;;25.10;34.08;98409.91;4863470;28;124438;-88
2022/05/22 11:02:25;;;;;;;1.93;1.50;;;24.50;52.30;;;25.14;33.92;98416.31;4855692;28;115283;-88
2022/05/22 11:04:55;;;;;;;2.43;1.63;;;24.60;52.10;;;25.20;33.98;98413.88;4867570;28;114921;-88
2022/05/22 11:07:43;;;;;;;2.10;1.60;;;24.70;52.10;;;25.24;34.10;98416.66;4864058;28;124158;-89
2022/05/22 11:10:17;;;;;;;3.17;1.70;;;24.70;52.00;;;25.30;33.75;98412.94;4870892;28;124335;-86
2022/05/22 11:12:44;;;;;;;1.90;1.30;;;24.80;51.80;;;25.36;33.70;98407.63;4855014;28;114347;-88
2022/05/22 11:15:24;;;;;;;1.73;1.60;;;24.80;51.60;;;25.43;33.48;98407.56;4872750;28;113255;-88
2022/05/22 11:18:09;;;;;;;2.27;1.60;;;24.90;51.60;;;25.47;33.40;98411.16;4860066;28;124448;-88
2022/05/22 11:20:46;;;;;;;2.50;1.70;;;24.90;51.30;;;25.50;33.32;98401.03;4869485;28;123789;-88
2022/05/22 11:23:40;;;;;;;2.43;1.50;;;24.90;51.00;;;25.49;32.72;98408.69;4872246;28;114234;-88
2022/05/22 11:26:18;;;;;;;2.73;1.73;;;25.00;50.60;;;25.55;32.91;98401.34;4853854;29;114047;-88
2022/05/22 11:29:29;;;;;;;2.27;1.43;;;25.00;51.00;;;25.62;32.87;98396.81;4863907;28;124102;-88
2022/05/22 11:32:40;;;;;;;2.53;1.83;;;25.10;50.70;;;25.70;32.69;98390.63;4795961;29;123878;-87
2022/05/22 11:35:31;;;;;;;2.80;1.60;;;25.20;50.70;;;25.82;32.51;98392.13;4871454;28;114252;-88
2022/05/22 11:38:55;;;;;;;1.90;1.70;;;25.30;50.40;;;25.92;32.48;98391.16;4869746;28;113977;-89
2022/05/22 11:41:36;;;;;;;2.27;1.47;;;25.40;50.30;;;26.04;32.60;98392.63;4829797;28;124225;-89
2022/05/22 11:44:27;;;;;;;3.30;1.50;;;25.50;50.10;;;26.11;32.38;98383.22;4839171;29;123560;-88
2022/05/22 11:47:13;;;;;;;3.87;1.50;;;25.50;50.10;;;26.22;32.36;98381.84;4853502;28;116445;-87
2022/05/22 11:50:02;;;;;;;2.10;1.57;;;25.60;49.80;;;26.28;31.60;98381.38;4861130;28;114115;-88
2022/05/22 11:52:55;;;;;;;2.10;1.60;;;25.70;49.50;;;26.34;31.70;98385.31;4869257;28;124117;-87
2022/05/22 11:55:50;;;;;;;1.67;1.40;;;25.80;49.30;;;26.37;32.01;98370.28;4873928;28;121830;-87
2022/05/22 11:58:36;;;;;;;3.70;1.80;;;27.10;50.00;;;26.50;31.51;98361.97;4858951;28;115257;-86
2022/05/22 12:01:22;;;;;;;1.90;1.53;;;25.90;49.20;;;26.64;31.20;98351.22;4845509;28;114583;-88
2022/05/22 12:04:01;;;;;;;2.10;1.53;;;26.00;48.40;;;26.70;31.18;98351.50;4882473;28;124388;-88
2022/05/22 12:07:00;;;;;;;3.40;1.33;;;26.10;48.60;;;26.80;31.44;98359.03;4857468;28;123985;-87
2022/05/22 12:10:00;;;;;;;2.07;1.50;;;26.20;48.50;;;26.90;30.87;98350.78;4874888;28;114067;-89
2022/05/22 12:12:35;;;;;;;1.50;1.40;;;26.30;48.40;;;27.02;31.01;98361.47;4873132;28;113415;-88
2022/05/22 12:15:19;;;;;;;2.13;1.50;;;26.40;48.80;;;27.10;30.46;98354.41;4870261;28;124107;-88
2022/05/22 12:18:37;;;;;;;2.07;1.60;;;26.50;47.50;;;27.17;30.69;98348.66;4869161;28;123821;-88
2022/05/22 12:21:54;;;;;;;5.50;3.03;;;26.60;47.40;;;27.30;30.43;98358.09;4863675;28;114219;-89
2022/05/22 12:24:29;;;;;;;6.70;4.20;;;26.70;47.40;;;27.44;30.08;98348.50;4857043;28;114288;-89
2022/05/22 12:26:58;;;;;;;3.00;2.00;;;26.80;47.00;;;27.53;29.88;98343.00;4853733;28;123187;-89
2022/05/22 12:29:34;;;;;;;2.47;2.00;;;26.90;46.40;;;27.60;30.10;98330.72;4864376;28;124170;-85
2022/05/22 12:32:20;;;;;;;3.63;2.10;;;27.00;46.70;;;27.68;29.61;98326.50;4862375;28;114303;-88
2022/05/22 12:34:54;;;;;;;2.23;1.83;;;27.10;46.10;;;27.77;30.06;98328.72;4837567;29;114258;-88
2022/05/22 12:37:31;;;;;;;3.37;2.20;;;27.20;46.40;;;27.84;29.52;98327.81;4853794;28;123905;-86
2022/05/22 12:40:27;;;;;;;1.80;1.50;;;27.20;45.80;;;27.89;29.38;98313.09;4873429;28;124380;-89
2022/05/22 12:42:59;;;;;;;2.30;1.60;;;27.30;45.60;;;27.95;29.23;98305.63;4869841;28;114392;-86
2022/05/22 12:45:28;;;;;;;2.87;2.27;;;27.40;45.40;;;28.01;28.79;98301.00;4858248;28;112756;-87
2022/05/22 12:48:09;;;;;;;3.40;2.13;;;27.50;45.20;;;28.07;28.80;98302.06;4852486;28;124496;-86
2022/05/22 12:51:05;;;;;;;2.77;1.63;;;27.50;44.70;;;28.09;28.34;98293.91;4869576;28;123835;-85
2022/05/22 12:53:33;;;;;;;1.73;1.37;;;27.60;44.00;;;28.16;28.60;98299.44;4872976;28;115244;-87
2022/05/22 12:56:18;;;;;;;2.70;1.50;;;27.40;44.40;;;28.25;28.44;98298.00;4853991;28;115125;-87
2022/05/22 12:59:00;;;;;;;2.50;1.43;;;27.70;44.40;;;28.34;28.78;98286.78;4873347;28;123419;-86
2022/05/22 13:01:38;;;;;;;2.80;2.00;;;27.80;44.50;;;28.46;28.85;98285.31;4849137;28;124037;-86
2022/05/22 13:04:30;;;;;;;2.90;1.83;;;27.80;44.20;;;28.54;28.19;98267.63;4870109;28;114278;-87
2022/05/22 13:07:11;;;;;;;2.23;1.60;;;27.90;43.40;;;28.57;27.91;98277.31;4871029;28;114174;-86
2022/05/22 13:09:40;;;;;;;2.60;1.40;;;28.00;43.30;;;28.62;27.81;98271.88;4851777;29;124456;-87
2022/05/22 13:12:13;;;;;;;2.00;1.50;;;28.00;43.40;;;28.70;28.13;98263.16;4853772;28;123911;-88
2022/05/22 13:14:54;;;;;;;2.57;1.40;;;28.10;43.60;;;28.79;28.08;98258.41;4860341;28;114163;-91
2022/05/22 13:18:12;;;;;;;2.30;1.33;;;28.20;44.20;;;28.97;28.03;98260.75;4866846;28;114416;-84
2022/05/22 13:20:38;;;;;;;3.00;1.30;;;28.30;43.20;;;29.12;27.52;98261.16;4866168;28;124073;-84
2022/05/22 13:23:12;;;;;;;2.87;1.50;;;28.40;43.00;;;29.23;27.52;98250.28;4872363;28;124453;-87
2022/05/22 13:25:56;;;;;;;2.83;1.40;;;28.60;43.10;;;29.28;27.31;98229.78;4870161;28;114426;-82
2022/05/22 13:28:43;;;;;;;3.00;1.60;;;28.70;42.20;;;29.29;26.90;98233.44;4868604;28;114002;-86
2022/05/22 13:31:21;;;;;;;5.73;1.60;;;28.70;41.80;;;29.37;26.47;98234.81;4870772;28;123874;-85
2022/05/22 13:34:15;;;;;;;5.30;1.50;;;28.70;41.60;;;29.39;26.16;98235.16;4849275;28;123749;-85
2022/05/22 13:37:05;;;;;;;2.33;1.40;;;28.80;40.90;;;29.45;26.33;98239.03;4872523;28;114226;-85
2022/05/22 13:39:53;;;;;;;1.77;1.13;;;28.90;40.50;;;29.51;26.16;98227.88;4873422;28;112917;-86
2022/05/22 13:43:00;;;;;;;1.60;1.47;;;28.90;41.00;;;29.61;26.54;98234.47;4874158;28;124083;-86
2022/05/22 13:45:54;;;;;;;1.77;1.27;;;29.00;41.00;;;29.74;26.46;98226.75;4871631;28;124302;-85
2022/05/22 13:48:45;;;;;;;1.57;1.30;;;29.10;40.80;;;29.81;26.01;98235.06;4867835;28;115188;-85
2022/05/22 13:54:55;;;;;;;1.40;1.30;;;29.30;40.50;;;29.83;26.32;98235.41;4798493;29;124463;-85
2022/05/22 13:57:29;;;;;;;1.23;1.13;;;29.30;40.30;;;29.91;26.36;98227.44;4780889;29;123160;-85
2022/05/22 14:00:15;;;;;;;1.50;1.20;;;30.80;41.40;;;29.98;26.16;98218.63;4838244;28;113961;-85
2022/05/22 14:03:07;;;;;;;1.73;1.10;;;29.40;40.30;;;30.06;25.93;98216.34;4832143;28;114050;-85
2022/05/22 14:05:44;;;;;;;1.20;1.00;;;29.60;39.80;;;30.20;25.52;98215.88;4875799;28;124164;-85
2022/05/22 14:08:34;;;;;;;1.23;1.13;;;29.60;39.80;;;30.37;25.65;98211.63;4849663;29;121752;-82
2022/05/22 14:11:25;;;;;;;1.80;1.30;;;29.70;39.70;;;30.53;25.04;98213.50;4853414;29;114665;-84
2022/05/22 14:14:02;;;;;;;4.03;1.70;;;29.80;39.00;;;30.62;24.69;98214.84;4876739;28;113224;-84
2022/05/22 14:16:35;;;;;;;2.03;1.27;;;30.00;38.90;;;30.65;23.91;98217.53;4873984;28;124035;-86
2022/05/22 14:19:10;;;;;;;1.90;1.57;;;30.00;37.70;;;30.63;24.42;98214.38;4875823;28;124835;-83
2022/05/22 14:21:44;;;;;;;1.40;1.30;;;30.00;37.40;;;30.67;24.60;98211.38;4874801;28;114276;-85
2022/05/22 14:27:37;;;;;;;2.07;1.33;;;30.10;37.10;;;30.67;24.48;98215.03;4860611;28;124166;-85
2022/05/22 14:30:38;;;;;;;3.03;1.30;;;30.20;37.20;;;30.71;24.29;98217.75;4866519;28;123764;-85
2022/05/22 14:33:23;;;;;;;1.43;1.20;;;30.20;37.00;;;30.75;24.05;98235.53;4875855;28;114052;-84
2022/05/22 14:35:52;;;;;;;1.40;1.30;;;30.20;37.40;;;30.86;24.61;98240.88;4871994;28;114256;-84
2022/05/22 14:38:22;;;;;;;1.23;1.10;;;30.30;37.70;;;30.95;23.51;98229.53;4864127;28;124544;-84
2022/05/22 14:40:58;;;;;;;1.53;1.33;;;30.40;36.90;;;30.96;23.75;98223.38;4876038;28;121282;-84
2022/05/22 14:43:50;;;;;;;1.87;1.30;;;30.40;36.80;;;31.02;23.56;98215.00;4873739;28;114809;-84
2022/05/22 14:46:27;;;;;;;1.73;1.30;;;30.50;36.30;;;31.04;23.44;98224.69;4864414;28;114614;-84
2022/05/22 14:48:56;;;;;;;1.30;1.20;;;30.50;36.50;;;31.11;23.92;98225.66;4862007;28;123753;-84
2022/05/22 14:51:40;;;;;;;2.63;1.33;;;30.50;36.70;;;31.11;22.79;98229.34;4861128;28;124174;-84
2022/05/22 14:54:35;;;;;;;2.20;1.53;;;30.60;34.90;;;31.11;23.29;98234.22;4834887;29;113618;-85
2022/05/22 14:57:09;;;;;;;2.47;1.30;;;30.60;35.70;;;31.20;23.05;98232.22;4859835;28;113993;-85
2022/05/22 14:59:52;;;;;;;1.67;1.07;;;30.70;35.70;;;31.28;23.48;98223.41;4873604;28;124270;-85
2022/05/22 15:02:39;;;;;;;1.80;1.10;;;30.70;35.70;;;31.34;23.23;98225.16;4868005;28;124301;-85
2022/05/22 15:05:34;;;;;;;1.93;1.13;;;30.80;35.60;;;31.33;23.13;98219.94;4858046;28;114206;-83
2022/05/22 15:08:22;;;;;;;1.97;1.13;;;30.80;34.80;;;31.28;22.91;98215.63;4867476;28;114067;-85
2022/05/22 15:10:48;;;;;;;1.67;1.27;;;30.80;35.00;;;31.31;23.33;98219.63;4856592;28;123901;-84
2022/05/22 15:13:31;;;;;;;3.83;1.20;;;30.80;35.30;;;31.32;22.75;98209.78;4842799;28;122527;-84
2022/05/22 15:16:18;;;;;;;1.60;1.20;;;30.80;35.00;;;31.23;23.35;98211.31;4857140;28;113739;-84
2022/05/22 15:21:30;;;;;;;1.17;1.00;;;30.80;35.00;;;31.16;23.38;98210.78;4863055;28;125100;-87
2022/05/22 15:26:51;;;;;;;1.70;1.03;;;30.70;34.50;;;30.88;23.27;98198.44;4880049;28;114316;-86
2022/05/22 15:29:30;;;;;;;1.67;1.27;;;30.50;34.50;;;30.72;23.42;98200.19;4872914;28;113734;-86
2022/05/22 15:32:18;;;;;;;1.10;0.93;;;30.40;34.80;;;30.65;23.26;98203.28;4872499;28;124438;-88
2022/05/22 15:35:00;;;;;;;1.30;1.00;;;30.40;35.20;;;30.62;23.51;98215.63;4842828;28;123817;-87
2022/05/22 15:37:27;;;;;;;1.67;1.20;;;30.30;35.30;;;30.55;23.85;98219.53;4857122;28;114936;-87
2022/05/22 15:39:53;;;;;;;1.37;1.13;;;30.20;35.30;;;30.49;23.57;98221.38;4854251;28;113500;-86
2022/05/22 15:42:22;;;;;;;1.10;0.90;;;30.20;35.40;;;30.41;24.06;98213.53;4857023;28;123856;-87
2022/05/22 15:44:56;;;;;;;1.37;1.07;;;30.10;35.50;;;30.30;24.21;98217.56;4868607;28;122912;-87
2022/05/22 15:47:25;;;;;;;1.57;1.20;;;30.00;35.70;;;30.22;23.91;98215.38;4869965;28;113647;-86
2022/05/22 15:53:35;;;;;;;1.20;1.10;;;29.80;35.70;;;29.97;24.15;98213.41;4877348;28;124781;-87
2022/05/22 15:56:02;;;;;;;1.47;1.10;;;29.70;35.70;;;29.83;24.08;98212.63;4882708;28;124141;-88
2022/05/22 15:58:29;;;;;;;2.90;1.57;;;29.60;35.60;;;29.67;24.11;98215.59;4850917;29;112685;-89
2022/05/22 16:01:10;;;;;;;2.13;1.50;;;29.40;35.40;;;29.41;24.54;98204.16;4863741;28;113331;-86
2022/05/22 16:03:42;;;;;;;1.93;1.10;;;29.20;35.80;;;29.31;24.77;98193.91;4837914;29;123375;-84
2022/05/22 16:06:11;;;;;;;1.00;0.90;;;29.00;36.20;;;29.26;25.14;98191.66;4869120;28;124401;-85
2022/05/22 16:08:38;;;;;;;2.83;1.10;;;29.00;36.50;;;29.19;25.11;98198.34;4856471;28;114858;-86
2022/05/22 16:11:04;;;;;;;1.40;1.20;;;28.90;36.80;;;29.16;25.39;98181.41;4852918;29;113445;-84
2022/05/22 16:13:31;;;;;;;1.87;1.20;;;28.80;37.10;;;29.12;25.36;98172.94;4851538;28;124195;-84
2022/05/22 16:15:58;;;;;;;3.30;1.10;;;28.80;37.40;;;29.10;25.55;98171.81;4856655;28;123549;-86
2022/05/22 16:18:33;;;;;;;1.57;1.00;;;28.70;37.50;;;29.04;25.47;98163.88;4850265;29;114295;-84
2022/05/22 16:21:00;;;;;;;1.70;1.50;;;28.70;37.60;;;28.90;25.26;98181.31;4854199;29;111896;-87
2022/05/22 16:23:27;;;;;;;1.83;1.20;;;28.60;37.20;;;28.76;25.57;98187.44;4839536;29;123420;-87
2022/05/22 16:25:54;;;;;;;1.40;1.20;;;28.40;37.30;;;28.70;25.71;98194.91;4822190;29;124890;-85
2022/05/22 16:28:21;;;;;;;1.50;1.10;;;28.40;37.50;;;28.67;25.74;98190.13;4854775;28;114987;-85
2022/05/22 16:30:49;;;;;;;1.10;0.97;;;28.30;37.60;;;28.63;25.76;98179.66;4859858;28;114680;-89
2022/05/22 16:33:17;;;;;;;1.40;0.90;;;28.30;37.70;;;28.58;25.69;98168.81;4854322;28;124014;-89
2022/05/22 16:35:44;;;;;;;1.77;1.50;;;28.20;37.80;;;28.56;26.25;98151.44;4857582;28;123111;-92
2022/05/22 16:38:12;;;;;;;2.20;2.00;;;28.20;37.90;;;28.52;25.93;98121.53;4867044;28;113871;-90
2022/05/22 16:40:40;;;;;;;2.47;1.90;;;28.10;37.90;;;28.45;25.93;98121.72;4872572;28;113040;-88
2022/05/22 16:43:06;;;;;;;2.23;2.00;;;28.10;38.00;;;28.37;26.25;98124.75;4863812;28;123381;-86
2022/05/22 16:45:38;;;;;;;1.30;1.20;;;28.00;38.00;;;28.30;26.18;98144.03;4872937;28;124012;-91
2022/05/22 16:53:36;;;;;;;1.07;0.93;;;27.70;38.40;;;28.03;26.58;98136.66;4865835;28;124050;-93
2022/05/22 16:56:03;;;;;;;1.73;1.20;;;27.60;38.60;;;28.02;26.65;98117.19;4871929;28;123656;-86
2022/05/22 16:58:32;;;;;;;1.67;1.20;;;27.60;38.70;;;28.01;26.47;98110.72;4866343;28;114230;-91
2022/05/22 17:01:05;;;;;;;1.43;1.20;;;27.60;38.80;;;27.97;26.63;98090.16;4842087;28;112963;-88
2022/05/22 17:03:42;;;;;;;1.50;1.20;;;27.60;38.70;;;27.94;26.62;98071.16;4869372;28;123390;-87
2022/05/22 17:06:22;;;;;;;1.53;1.20;;;27.50;38.70;;;27.91;26.70;98066.38;4841486;28;124562;-86
2022/05/22 17:08:58;;;;;;;1.47;1.07;;;27.50;38.60;;;27.88;26.54;98055.91;4838727;29;114485;-86
2022/05/22 17:11:48;;;;;;;1.57;1.27;;;27.50;38.70;;;27.76;26.61;98049.72;4863715;28;114158;-89
2022/05/22 17:14:31;;;;;;;1.43;1.23;;;27.40;38.50;;;27.68;26.45;98050.34;4855474;28;124040;-89
2022/05/22 17:17:01;;;;;;;2.80;1.00;;;27.30;38.60;;;27.62;26.70;98057.78;4859564;28;124194;-84